Chicago, Illinois
Traffic Map
Current Weather Conditions
Chicago, Illinois
Overcast
Overcast
23°
Feels Like: 23°
Wind Chill: 23° Ceiling: 3200
Heat Index: 23° Visibility: 10mi
Dew Point: 17° Wind: 3mph
Humidity: 71% Direction: 170° (S)
Pressure: 30.08in Gusts: 0mph
Raw Report DataKMDW 301553Z 17003KT 10SM SCT016 OVC032 23/17 A3008 RMK AO2 SLP179 T02280172 $
Traffic Incident Summary
Active as of:
Severity:
Category:
InformationThere was an issue retrieving the traffic information for this location. Please try a different location or try again shortly.
Advertisements
Track Severe Weather on mobile